createdAt,value
2023-03-15T00:00:06.386Z,1.3
2023-03-15T00:01:08.369Z,1.3
2023-03-15T00:02:10.437Z,1.3
2023-03-15T00:03:12.417Z,1.3
2023-03-15T00:04:14.508Z,1.3
2023-03-15T00:05:16.361Z,1.3
2023-03-15T00:06:18.417Z,1.3
2023-03-15T00:07:21.362Z,1.3
2023-03-15T00:08:23.388Z,1.3
2023-03-15T00:09:25.391Z,1.3
2023-03-15T00:10:28.396Z,1.3
2023-03-15T00:11:31.367Z,1.3
2023-03-15T00:12:34.435Z,1.2
2023-03-15T00:13:36.365Z,1.2
2023-03-15T00:14:38.367Z,1.2
2023-03-15T00:16:17.977Z,1.3
2023-03-15T00:17:17.661Z,1.2
2023-03-15T00:18:17.670Z,1.3
2023-03-15T00:19:17.671Z,1.3
2023-03-15T00:20:17.670Z,1.3
2023-03-15T00:21:17.698Z,1.3
2023-03-15T00:22:17.691Z,1.3
2023-03-15T00:23:17.703Z,1.2
2023-03-15T00:24:17.665Z,1.3
2023-03-15T00:25:17.682Z,1.3
2023-03-15T00:26:17.698Z,1.3
2023-03-15T00:27:17.719Z,1.4
2023-03-15T00:28:17.753Z,1.4
2023-03-15T00:29:17.696Z,1.3
2023-03-15T00:30:17.670Z,1.4
2023-03-15T00:31:17.764Z,1.3
2023-03-15T00:32:36.336Z,1.3
2023-03-15T00:33:37.894Z,1.3
2023-03-15T00:34:39.909Z,1.3
2023-03-15T00:35:41.931Z,1.3
2023-03-15T00:36:43.872Z,1.3
2023-03-15T00:37:45.918Z,1.3
2023-03-15T00:39:02.357Z,1.3
2023-03-15T00:39:49.887Z,1.4
2023-03-15T00:40:51.875Z,1.4
2023-03-15T00:41:53.878Z,1.4
2023-03-15T00:42:55.874Z,1.4
2023-03-15T00:43:57.912Z,1.4
2023-03-15T00:44:59.887Z,1.4
2023-03-15T00:46:01.921Z,1.4
2023-03-15T00:47:03.917Z,1.4
2023-03-15T00:48:05.883Z,1.4
2023-03-15T00:49:07.881Z,1.4
2023-03-15T00:50:09.929Z,1.3
2023-03-15T00:51:11.949Z,1.3
2023-03-15T00:52:13.891Z,1.3
2023-03-15T00:53:15.927Z,1.2
2023-03-15T00:54:18.022Z,1.1
2023-03-15T00:55:19.885Z,1.1
2023-03-15T00:56:21.904Z,1.1
2023-03-15T00:57:23.886Z,1.1
2023-03-15T00:58:27.563Z,1.1
2023-03-15T00:59:27.892Z,1
2023-03-15T01:00:29.888Z,1.1
2023-03-15T01:01:31.970Z,1
2023-03-15T01:02:33.928Z,1.1
2023-03-15T01:03:36.973Z,1.1
2023-03-15T01:04:37.888Z,1.1
2023-03-15T01:06:41.893Z,1
2023-03-15T01:07:43.888Z,1
2023-03-15T01:08:45.936Z,1
2023-03-15T01:09:48.563Z,1
2023-03-15T01:10:49.981Z,1.1
2023-03-15T01:11:51.899Z,1.1
2023-03-15T01:12:54.890Z,1.1
2023-03-15T01:13:56.915Z,1.1
2023-03-15T01:14:58.899Z,1.1
2023-03-15T01:16:01.026Z,1
2023-03-15T01:17:02.900Z,0.9
2023-03-15T01:18:04.924Z,0.9
2023-03-15T01:19:06.895Z,0.8
2023-03-15T01:20:08.908Z,0.8
2023-03-15T01:21:10.940Z,0.8
2023-03-15T01:22:12.906Z,0.7
2023-03-15T01:23:14.906Z,0.7
2023-03-15T01:24:16.912Z,0.7
2023-03-15T01:25:18.907Z,0.7
2023-03-15T01:26:20.940Z,0.6
2023-03-15T01:27:22.927Z,0.6
2023-03-15T01:28:24.913Z,0.6
2023-03-15T01:29:26.901Z,0.6
2023-03-15T01:30:28.919Z,0.6
2023-03-15T01:31:30.952Z,0.6
2023-03-15T01:32:32.928Z,0.7
2023-03-15T01:33:35.968Z,0.7
2023-03-15T01:34:38.948Z,0.7
2023-03-15T01:35:40.931Z,0.7
2023-03-15T01:36:42.949Z,0.7
2023-03-15T01:37:44.911Z,0.7
2023-03-15T01:38:46.921Z,0.7
2023-03-15T01:39:48.916Z,0.6
2023-03-15T01:40:50.926Z,0.6
2023-03-15T01:41:53.013Z,0.6
2023-03-15T01:42:54.972Z,0.6
2023-03-15T01:43:56.924Z,0.6
2023-03-15T01:44:58.923Z,0.6
2023-03-15T01:46:00.938Z,0.6
2023-03-15T01:47:03.038Z,0.6
2023-03-15T01:48:04.933Z,0.6
2023-03-15T01:49:06.961Z,0.6
2023-03-15T01:50:08.939Z,0.6
2023-03-15T01:51:10.924Z,0.6
2023-03-15T01:52:13.935Z,0.6
2023-03-15T01:53:15.929Z,0.6
2023-03-15T01:54:18.088Z,0.7
2023-03-15T01:55:21.938Z,0.7
2023-03-15T01:56:23.937Z,0.7
2023-03-15T01:57:25.988Z,0.7
2023-03-15T01:58:27.962Z,0.6
2023-03-15T01:59:29.941Z,0.6
2023-03-15T02:00:32.053Z,0.5
2023-03-15T02:01:33.968Z,0.5
2023-03-15T02:02:35.995Z,0.5
2023-03-15T02:03:38.937Z,0.5
2023-03-15T02:04:40.937Z,0.4
2023-03-15T02:05:42.931Z,0.4
2023-03-15T02:07:17.785Z,0.4
2023-03-15T02:08:17.776Z,0.4
2023-03-15T02:09:17.800Z,0.4
2023-03-15T02:10:17.801Z,0.4
2023-03-15T02:11:17.750Z,0.4
2023-03-15T02:12:17.769Z,0.4
2023-03-15T02:13:17.840Z,0.5
2023-03-15T02:14:17.786Z,0.5
2023-03-15T02:15:17.837Z,0.5
2023-03-15T02:16:17.815Z,0.5
2023-03-15T02:17:17.746Z,0.5
2023-03-15T02:18:17.755Z,0.5
2023-03-15T02:19:17.763Z,0.5
2023-03-15T02:20:17.750Z,0.5
2023-03-15T02:21:17.754Z,0.5
2023-03-15T02:22:18.905Z,0.5
2023-03-15T02:23:20.931Z,0.4
2023-03-15T02:24:22.886Z,0.4
2023-03-15T02:25:24.893Z,0.4
2023-03-15T02:26:26.916Z,0.4
2023-03-15T02:27:28.931Z,0.4
2023-03-15T02:28:30.892Z,0.4
2023-03-15T02:29:32.949Z,0.4
2023-03-15T02:30:35.899Z,0.4
2023-03-15T02:31:38.938Z,0.4
2023-03-15T02:32:40.938Z,0.4
2023-03-15T02:33:42.950Z,0.4
2023-03-15T02:34:44.924Z,0.4
2023-03-15T02:35:46.964Z,0.4
2023-03-15T02:36:48.921Z,0.4
2023-03-15T02:37:50.891Z,0.4
2023-03-15T02:38:52.940Z,0.4
2023-03-15T02:39:55.899Z,0.4
2023-03-15T02:40:57.929Z,0.4
2023-03-15T02:41:59.894Z,0.5
2023-03-15T02:43:01.893Z,0.5
2023-03-15T02:44:03.972Z,0.5
2023-03-15T02:45:05.896Z,0.5
2023-03-15T02:46:07.972Z,0.4
2023-03-15T02:47:09.921Z,0.4
2023-03-15T02:48:11.910Z,0.4
2023-03-15T02:49:13.966Z,0.4
2023-03-15T02:50:15.927Z,0.3
2023-03-15T02:51:18.118Z,0.4
2023-03-15T02:52:21.915Z,0.4
2023-03-15T02:53:23.900Z,0.4
2023-03-15T02:54:25.905Z,0.4
2023-03-15T02:55:27.920Z,0.3
2023-03-15T02:56:29.981Z,0.2
2023-03-15T02:57:32.912Z,0.2
2023-03-15T02:58:35.921Z,0.2
2023-03-15T02:59:38.946Z,0.2
2023-03-15T03:00:40.907Z,0.2
2023-03-15T03:01:42.893Z,0.1
2023-03-15T03:02:44.983Z,0.1
2023-03-15T03:03:46.920Z,0.1
2023-03-15T03:04:48.973Z,0.1
2023-03-15T03:05:50.920Z,0.1
2023-03-15T03:06:52.916Z,0.1
2023-03-15T03:07:54.916Z,0.1
2023-03-15T03:08:56.967Z,0.1
2023-03-15T03:09:58.932Z,0
2023-03-15T03:11:00.921Z,0.1
2023-03-15T03:12:02.917Z,0.1
2023-03-15T03:13:04.940Z,0.1
2023-03-15T03:14:06.928Z,0
2023-03-15T03:15:08.922Z,0
2023-03-15T03:16:10.979Z,0
2023-03-15T03:17:12.921Z,0
2023-03-15T03:18:14.967Z,0
2023-03-15T03:19:17.828Z,0
2023-03-15T03:20:18.924Z,0
2023-03-15T03:21:20.919Z,-0.1
2023-03-15T03:22:22.928Z,-0.1
2023-03-15T03:23:24.955Z,-0.1
2023-03-15T03:24:26.937Z,-0.1
2023-03-15T03:25:28.914Z,-0.1
2023-03-15T03:26:30.919Z,-0.1
2023-03-15T03:27:32.922Z,-0.1
2023-03-15T03:28:35.954Z,-0.1
2023-03-15T03:29:38.932Z,-0.2
2023-03-15T03:30:41.016Z,-0.1
2023-03-15T03:31:42.924Z,-0.2
2023-03-15T03:32:44.957Z,-0.2
2023-03-15T03:33:46.936Z,-0.2
2023-03-15T03:34:48.924Z,-0.2
2023-03-15T03:35:50.995Z,-0.2
2023-03-15T03:36:52.928Z,-0.2
2023-03-15T03:37:54.936Z,-0.2
2023-03-15T03:38:56.926Z,-0.2
2023-03-15T03:39:58.969Z,-0.2
2023-03-15T03:41:00.951Z,-0.2
2023-03-15T03:42:02.933Z,-0.2
2023-03-15T03:43:04.925Z,-0.2
2023-03-15T03:44:06.935Z,-0.3
2023-03-15T03:45:08.941Z,-0.3
2023-03-15T03:46:11.047Z,-0.3
2023-03-15T03:47:12.934Z,-0.3
2023-03-15T03:48:14.946Z,-0.3
2023-03-15T03:49:16.931Z,-0.3
2023-03-15T03:50:18.933Z,-0.3
2023-03-15T03:51:20.972Z,-0.3
2023-03-15T03:52:23.932Z,-0.4
2023-03-15T03:53:25.945Z,-0.4
2023-03-15T03:54:27.944Z,-0.4
2023-03-15T03:55:29.933Z,-0.4
2023-03-15T03:56:31.956Z,-0.4
2023-03-15T03:57:33.935Z,-0.4
2023-03-15T03:58:36.002Z,-0.4
2023-03-15T03:59:39.937Z,-0.4
2023-03-15T04:00:42.936Z,-0.4
2023-03-15T04:01:45.938Z,-0.4
2023-03-15T04:02:47.953Z,-0.4
2023-03-15T04:03:49.976Z,-0.4
2023-03-15T04:04:51.977Z,-0.4
2023-03-15T04:05:54.936Z,-0.5
2023-03-15T04:06:56.970Z,-0.5
2023-03-15T04:07:58.944Z,-0.5
2023-03-15T04:09:00.984Z,-0.5
2023-03-15T04:10:02.972Z,-0.5
2023-03-15T04:11:04.968Z,-0.5
2023-03-15T04:12:06.977Z,-0.6
2023-03-15T04:13:08.950Z,-0.6
2023-03-15T04:14:10.953Z,-0.6
2023-03-15T04:15:12.990Z,-0.6
2023-03-15T04:16:15.002Z,-0.6
2023-03-15T04:17:16.944Z,-0.6
2023-03-15T04:18:18.951Z,-0.6
2023-03-15T04:19:20.949Z,-0.6
2023-03-15T04:20:22.984Z,-0.6
2023-03-15T04:21:26.012Z,-0.6
2023-03-15T04:22:27.949Z,-0.6
2023-03-15T04:23:29.950Z,-0.6
2023-03-15T04:24:32.945Z,-0.6
2023-03-15T04:25:36.020Z,-0.6
2023-03-15T04:26:38.999Z,-0.6
2023-03-15T04:27:40.951Z,-0.6
2023-03-15T04:28:42.965Z,-0.7
2023-03-15T04:29:44.993Z,-0.7
2023-03-15T04:30:46.988Z,-0.7
2023-03-15T04:31:48.963Z,-0.7
2023-03-15T04:32:51.111Z,-0.7
2023-03-15T04:33:52.970Z,-0.8
2023-03-15T04:34:56.030Z,-0.8
2023-03-15T04:35:58.071Z,-0.8
2023-03-15T04:36:59.971Z,-0.8
2023-03-15T04:38:01.997Z,-0.8
2023-03-15T04:39:03.975Z,-0.8
2023-03-15T04:40:06.000Z,-0.8
2023-03-15T04:41:07.970Z,-0.8
2023-03-15T04:42:10.025Z,-0.8
2023-03-15T04:43:11.966Z,-0.9
2023-03-15T04:44:14.018Z,-0.8
2023-03-15T04:45:15.972Z,-0.8
2023-03-15T04:46:18.235Z,-0.9
2023-03-15T04:47:22.013Z,-0.9
2023-03-15T04:48:23.981Z,-0.9
2023-03-15T04:49:26.016Z,-0.9
2023-03-15T04:50:27.975Z,-0.9
2023-03-15T04:51:29.974Z,-0.9
2023-03-15T04:52:32.009Z,-0.9
2023-03-15T04:53:33.980Z,-0.9
2023-03-15T04:54:36.019Z,-1
2023-03-15T04:55:39.987Z,-1
2023-03-15T04:56:41.992Z,-1
2023-03-15T04:57:44.024Z,-1
2023-03-15T04:58:46.076Z,-1.1
2023-03-15T04:59:48.042Z,-1.1
2023-03-15T05:00:50.082Z,-1.1
2023-03-15T05:01:52.034Z,-1.1
2023-03-15T05:02:54.030Z,-1.1
2023-03-15T05:03:56.055Z,-1.1
2023-03-15T05:04:57.994Z,-1.1
2023-03-15T05:05:59.985Z,-1.1
2023-03-15T05:07:17.852Z,-1.2
2023-03-15T05:08:17.867Z,-1.2
2023-03-15T05:09:17.930Z,-1.2
2023-03-15T05:10:17.895Z,-1.2
2023-03-15T05:12:39.423Z,-1.2
2023-03-15T05:13:17.873Z,-1.2
2023-03-15T05:14:17.909Z,-1.2
2023-03-15T05:15:18.275Z,-1.2
2023-03-15T05:16:22.073Z,-1.2
2023-03-15T05:17:23.987Z,-1.3
2023-03-15T05:18:26.057Z,-1.3
2023-03-15T05:19:27.999Z,-1.3
2023-03-15T05:20:29.997Z,-1.3
2023-03-15T05:21:32.003Z,-1.3
2023-03-15T05:22:33.996Z,-1.3
2023-03-15T05:23:36.212Z,-1.3
2023-03-15T05:24:38.008Z,-1.3
2023-03-15T05:25:40.024Z,-1.3
2023-03-15T05:26:42.001Z,-1.3
2023-03-15T05:27:44.014Z,-1.3
2023-03-15T05:28:46.065Z,-1.3
2023-03-15T05:29:48.086Z,-1.3
2023-03-15T05:30:50.009Z,-1.3
2023-03-15T05:31:52.059Z,-1.3
2023-03-15T05:32:54.052Z,-1.4
2023-03-15T05:33:56.014Z,-1.4
2023-03-15T05:34:58.050Z,-1.4
2023-03-15T05:36:00.071Z,-1.4
2023-03-15T05:37:01.995Z,-1.4
2023-03-15T05:38:04.026Z,-1.4
2023-03-15T05:39:06.009Z,-1.4
2023-03-15T05:40:08.081Z,-1.4
2023-03-15T05:41:10.009Z,-1.4
2023-03-15T05:42:12.016Z,-1.4
2023-03-15T05:43:14.018Z,-1.4
2023-03-15T05:44:16.012Z,-1.4
2023-03-15T05:45:18.216Z,-1.4
2023-03-15T05:46:20.055Z,-1.4
2023-03-15T05:47:22.017Z,-1.4
2023-03-15T05:48:24.041Z,-1.3
2023-03-15T05:49:26.009Z,-1.3
2023-03-15T05:50:28.022Z,-1.4
2023-03-15T05:51:30.008Z,-1.4
2023-03-15T05:52:32.008Z,-1.4
2023-03-15T05:53:34.060Z,-1.5
2023-03-15T05:54:38.022Z,-1.5
2023-03-15T05:55:40.051Z,-1.5
2023-03-15T05:56:42.017Z,-1.5
2023-03-15T05:57:44.010Z,-1.5
2023-03-15T05:58:46.059Z,-1.5
2023-03-15T05:59:48.034Z,-1.5
2023-03-15T06:01:52.213Z,-1.5
2023-03-15T06:02:54.019Z,-1.5
2023-03-15T06:03:56.083Z,-1.5
2023-03-15T06:04:58.018Z,-1.5
2023-03-15T06:06:00.034Z,-1.5
2023-03-15T06:07:02.049Z,-1.5
2023-03-15T06:08:04.097Z,-1.5
2023-03-15T06:09:06.055Z,-1.5
2023-03-15T06:10:08.028Z,-1.5
2023-03-15T06:13:32.546Z,-1.5
2023-03-15T06:14:32.614Z,-1.5
2023-03-15T06:15:24.705Z,-1.5
2023-03-15T06:16:26.775Z,-1.5
2023-03-15T06:17:28.759Z,-1.5
2023-03-15T06:18:30.700Z,-1.5
2023-03-15T06:20:17.966Z,-1.5
2023-03-15T06:21:38.229Z,-1.5
2023-03-15T06:26:17.920Z,-1.5
2023-03-15T06:27:17.900Z,-1.4
2023-03-15T06:28:32.547Z,-1.4
2023-03-15T06:29:17.899Z,-1.4
2023-03-15T06:31:06.966Z,-1.4
2023-03-15T06:32:08.948Z,-1.4
2023-03-15T06:33:10.990Z,-1.4
2023-03-15T06:34:12.984Z,-1.3
2023-03-15T06:36:16.947Z,-1.3
2023-03-15T06:37:29.041Z,-1.3
2023-03-15T06:38:20.930Z,-1.3
2023-03-15T06:39:22.977Z,-1.3
2023-03-15T06:41:26.959Z,-1.3
2023-03-15T06:42:28.953Z,-1.3
2023-03-15T06:43:30.943Z,-1.3
2023-03-15T06:44:32.950Z,-1.3
2023-03-15T06:45:35.997Z,-1.3
2023-03-15T06:46:38.986Z,-1.3
2023-03-15T06:47:40.946Z,-1.2
2023-03-15T06:48:42.952Z,-1.2
2023-03-15T06:52:02.577Z,-1.1
2023-03-15T06:52:50.952Z,-1.1
2023-03-15T06:53:52.949Z,-1.1
2023-03-15T06:54:54.963Z,-1.1
2023-03-15T06:55:56.972Z,-1.1
2023-03-15T06:58:00.990Z,-1.1
2023-03-15T06:59:02.957Z,-1.1
2023-03-15T07:00:05.961Z,-1.1
2023-03-15T07:01:08.069Z,-1.1
2023-03-15T07:02:09.953Z,-1.1
2023-03-15T07:03:11.962Z,-1
2023-03-15T07:04:14.955Z,-1
2023-03-15T07:05:17.011Z,-1
2023-03-15T07:06:18.986Z,-0.9
2023-03-15T07:08:23.671Z,-0.9
2023-03-15T07:09:25.603Z,-0.8
2023-03-15T07:10:27.601Z,-0.8
2023-03-15T07:12:31.637Z,-0.7
2023-03-15T07:13:33.601Z,-0.6
2023-03-15T07:14:36.629Z,-0.5
2023-03-15T07:16:18.074Z,-0.4
2023-03-15T07:17:43.637Z,-0.3
2023-03-15T07:18:45.623Z,-0.3
2023-03-15T07:20:50.610Z,-0.2
2023-03-15T07:22:54.620Z,-0.1
2023-03-15T07:23:56.634Z,-0.1
2023-03-15T07:24:58.634Z,0
2023-03-15T07:26:00.612Z,0
2023-03-15T07:29:07.145Z,0.2
2023-03-15T07:30:09.196Z,0.2
2023-03-15T07:31:12.201Z,0.2
2023-03-15T07:32:14.232Z,0.2
2023-03-15T07:33:16.247Z,0.2
2023-03-15T07:34:18.269Z,0.3
2023-03-15T07:35:35.865Z,0.3
2023-03-15T07:36:37.819Z,0.4
2023-03-15T07:37:44.140Z,0.4
2023-03-15T07:38:43.229Z,0.4
2023-03-15T07:39:43.861Z,0.4
2023-03-15T07:40:45.817Z,0.4
2023-03-15T07:41:47.817Z,0.4
2023-03-15T07:42:49.840Z,0.4
2023-03-15T07:43:52.870Z,0.4
2023-03-15T07:44:54.856Z,0.4
2023-03-15T07:45:56.825Z,0.4
2023-03-15T07:46:59.031Z,0.5
2023-03-15T07:48:00.840Z,0.5
2023-03-15T07:49:02.871Z,0.5
2023-03-15T07:50:05.837Z,0.5
2023-03-15T07:51:07.817Z,0.5
2023-03-15T07:52:10.825Z,0.5
2023-03-15T07:53:12.835Z,0.5
2023-03-15T07:54:14.822Z,0.5
2023-03-15T07:55:16.839Z,0.5
2023-03-15T07:56:19.807Z,0.5
2023-03-15T07:57:20.823Z,0.5
2023-03-15T07:58:22.821Z,0.5
2023-03-15T07:59:24.834Z,0.5
2023-03-15T08:00:26.840Z,0.5
2023-03-15T08:01:28.830Z,0.5
2023-03-15T08:02:30.845Z,0.4
2023-03-15T08:03:32.872Z,0.4
2023-03-15T08:04:36.553Z,0.4
2023-03-15T08:05:36.824Z,0.4
2023-03-15T08:06:38.876Z,0.4
2023-03-15T08:07:40.879Z,0.4
2023-03-15T08:08:43.859Z,0.4
2023-03-15T08:09:45.876Z,0.3
2023-03-15T08:10:47.830Z,0.3
2023-03-15T08:11:49.850Z,0.3
2023-03-15T08:12:53.840Z,0.3
2023-03-15T08:13:55.835Z,0.3
2023-03-15T08:14:57.910Z,0.3
2023-03-15T08:15:59.893Z,0.3
2023-03-15T08:17:01.846Z,0.3
2023-03-15T08:18:05.849Z,0.3
2023-03-15T08:19:05.862Z,0.3
2023-03-15T08:20:07.854Z,0.3
2023-03-15T08:21:09.849Z,0.3
2023-03-15T08:23:13.849Z,0.3
2023-03-15T08:24:15.840Z,0.3
2023-03-15T08:25:17.913Z,0.3
2023-03-15T08:26:52.112Z,0.4
2023-03-15T08:27:32.687Z,0.4
2023-03-15T08:28:26.315Z,0.4
2023-03-15T08:29:28.313Z,0.5
2023-03-15T08:30:30.327Z,0.5
2023-03-15T08:31:33.373Z,0.5
2023-03-15T08:32:35.362Z,0.5
2023-03-15T08:33:37.327Z,0.5
2023-03-15T08:34:39.321Z,0.5
2023-03-15T08:35:41.417Z,0.5
2023-03-15T08:36:43.342Z,0.5
2023-03-15T08:37:45.363Z,0.5
2023-03-15T08:40:53.307Z,0.6
2023-03-15T08:42:32.599Z,0.6
2023-03-15T08:44:18.006Z,0.6
2023-03-15T08:46:18.008Z,0.6
2023-03-15T08:47:17.981Z,0.5
2023-03-15T08:48:18.012Z,0.5
2023-03-15T08:49:18.024Z,0.6
2023-03-15T08:50:18.023Z,0.6
2023-03-15T08:51:18.931Z,0.5
2023-03-15T08:52:20.982Z,0.5
2023-03-15T08:53:22.982Z,0.5
2023-03-15T08:54:25.983Z,0.6
2023-03-15T08:55:32.627Z,0.6
2023-03-15T08:56:29.946Z,0.6
2023-03-15T08:57:31.994Z,0.6
2023-03-15T08:58:33.938Z,0.7
2023-03-15T08:59:36.047Z,0.6
2023-03-15T09:00:38.049Z,0.7
2023-03-15T09:01:39.940Z,0.6
2023-03-15T09:02:42.086Z,0.6
2023-03-15T09:03:44.936Z,0.7
2023-03-15T09:04:47.027Z,0.7
2023-03-15T09:05:48.936Z,0.7
2023-03-15T09:06:50.939Z,0.7
2023-03-15T09:07:53.076Z,0.7
2023-03-15T09:08:54.940Z,0.7
2023-03-15T09:09:56.942Z,0.7
2023-03-15T09:10:59.983Z,0.7
2023-03-15T09:12:02.953Z,0.7
2023-03-15T09:13:04.979Z,0.8
2023-03-15T09:15:09.025Z,0.7
2023-03-15T09:16:10.953Z,0.7
2023-03-15T09:17:13.070Z,0.7
2023-03-15T09:18:14.948Z,0.7
2023-03-15T09:19:16.954Z,0.7
2023-03-15T09:20:19.343Z,0.7
2023-03-15T09:21:21.950Z,0.7
2023-03-15T09:22:38.683Z,0.7
2023-03-15T09:23:25.956Z,0.7
2023-03-15T09:24:27.952Z,0.7
2023-03-15T09:25:29.964Z,0.7
2023-03-15T09:26:31.964Z,0.7
2023-03-15T09:27:33.980Z,0.7
2023-03-15T09:28:35.970Z,0.7
2023-03-15T09:29:37.994Z,0.6
2023-03-15T09:30:40.068Z,0.6
2023-03-15T09:32:44.039Z,0.7
2023-03-15T09:34:47.957Z,0.7
2023-03-15T09:35:50.016Z,0.7
2023-03-15T09:36:51.991Z,0.7
2023-03-15T09:38:55.966Z,0.7
2023-03-15T09:40:59.974Z,0.7
2023-03-15T09:42:06.360Z,0.7
2023-03-15T09:43:06.004Z,0.7
2023-03-15T09:44:08.985Z,0.7
2023-03-15T09:45:10.978Z,0.7
2023-03-15T09:46:13.068Z,0.7
2023-03-15T09:47:15.007Z,0.7
2023-03-15T09:48:16.985Z,0.8
2023-03-15T09:49:18.975Z,0.8
2023-03-15T09:50:21.030Z,0.8
2023-03-15T09:51:22.981Z,0.7
2023-03-15T09:52:38.729Z,0.8
2023-03-15T09:53:27.981Z,0.8
2023-03-15T09:54:29.983Z,0.8
2023-03-15T09:55:32.009Z,0.8
2023-03-15T09:56:33.986Z,0.8
2023-03-15T09:57:36.035Z,0.8
2023-03-15T09:58:38.013Z,0.9
2023-03-15T09:59:40.005Z,0.9
2023-03-15T10:00:43.040Z,0.9
2023-03-15T10:01:45.014Z,0.9
2023-03-15T10:03:49.201Z,0.9
2023-03-15T10:04:51.007Z,0.9
2023-03-15T10:05:52.994Z,1
2023-03-15T10:06:55.996Z,1
2023-03-15T10:07:58.031Z,1.1
2023-03-15T10:09:00.003Z,1.1
2023-03-15T10:10:04.015Z,1.1
2023-03-15T10:11:06.001Z,1.2
2023-03-15T10:12:07.994Z,1.1
2023-03-15T10:13:10.038Z,1.2
2023-03-15T10:14:12.015Z,1.2
2023-03-15T10:15:14.000Z,1.3
2023-03-15T10:16:16.212Z,1.3
2023-03-15T10:17:17.994Z,1.3
2023-03-15T10:18:20.004Z,1.3
2023-03-15T10:19:22.042Z,1.3
2023-03-15T10:20:24.012Z,1.4
2023-03-15T10:21:26.013Z,1.4
2023-03-15T10:22:28.001Z,1.3
2023-03-15T10:23:30.005Z,1.3
2023-03-15T10:24:32.002Z,1.4
2023-03-15T10:25:34.009Z,1.4
2023-03-15T10:26:36.055Z,1.4
2023-03-15T10:27:38.001Z,1.4
2023-03-15T10:28:40.013Z,1.5
2023-03-15T10:29:42.017Z,1.5
2023-03-15T10:30:43.993Z,1.5
2023-03-15T10:31:46.092Z,1.6
2023-03-15T10:32:48.095Z,1.6
2023-03-15T10:34:02.671Z,1.6
2023-03-15T10:34:52.019Z,1.7
2023-03-15T10:35:58.609Z,1.7
2023-03-15T10:37:08.678Z,1.7
2023-03-15T10:38:00.028Z,1.7
2023-03-15T10:39:03.026Z,1.7
2023-03-15T10:40:20.797Z,1.7
2023-03-15T10:41:28.480Z,1.7
2023-03-15T10:42:18.050Z,1.7
2023-03-15T10:43:18.068Z,1.6
2023-03-15T10:44:18.109Z,1.6
2023-03-15T10:45:18.096Z,1.6
2023-03-15T10:46:18.082Z,1.6
2023-03-15T10:47:23.122Z,1.6
2023-03-15T10:48:21.032Z,1.6
2023-03-15T10:49:23.065Z,1.6
2023-03-15T10:50:25.026Z,1.6
2023-03-15T10:51:27.021Z,1.6
2023-03-15T10:52:29.039Z,1.7
2023-03-15T10:53:31.014Z,1.7
2023-03-15T10:54:34.014Z,1.7
2023-03-15T10:55:36.023Z,1.7
2023-03-15T10:56:38.034Z,1.7
2023-03-15T10:57:40.102Z,1.6
2023-03-15T10:58:42.031Z,1.7
2023-03-15T10:59:44.014Z,1.7
2023-03-15T11:00:47.019Z,1.7
2023-03-15T11:01:49.074Z,1.7
2023-03-15T11:02:51.071Z,1.6
2023-03-15T11:03:53.022Z,1.6
2023-03-15T11:04:55.097Z,1.6
2023-03-15T11:05:57.033Z,1.6
2023-03-15T11:07:00.049Z,1.5
2023-03-15T11:08:03.056Z,1.5
2023-03-15T11:09:05.036Z,1.5
2023-03-15T11:10:07.045Z,1.5
2023-03-15T11:11:09.069Z,1.5
2023-03-15T11:12:11.035Z,1.5
2023-03-15T11:13:13.031Z,1.5
2023-03-15T11:14:15.092Z,1.5
2023-03-15T11:15:17.066Z,1.5
2023-03-15T11:16:19.236Z,1.5
2023-03-15T11:17:21.045Z,1.4
2023-03-15T11:18:23.033Z,1.4
2023-03-15T11:19:25.068Z,1.4
2023-03-15T11:20:27.030Z,1.4
2023-03-15T11:21:29.026Z,1.4
2023-03-15T11:22:31.046Z,1.4
2023-03-15T11:23:33.028Z,1.4
2023-03-15T11:24:35.080Z,1.4
2023-03-15T11:25:37.065Z,1.4
2023-03-15T11:26:39.073Z,1.4
2023-03-15T11:28:44.042Z,1.5
2023-03-15T11:29:46.031Z,1.4
2023-03-15T11:30:48.596Z,1.5
2023-03-15T11:31:50.111Z,1.5
2023-03-15T11:32:52.145Z,1.5
2023-03-15T11:33:54.041Z,1.5
2023-03-15T11:34:56.035Z,1.5
2023-03-15T11:35:58.182Z,1.5
2023-03-15T11:37:08.049Z,1.5
2023-03-15T11:38:14.557Z,1.5
2023-03-15T11:39:05.035Z,1.6
2023-03-15T11:40:11.761Z,1.6
2023-03-15T11:41:09.085Z,1.6
2023-03-15T11:42:11.317Z,1.6
2023-03-15T11:43:14.047Z,1.5
2023-03-15T11:44:16.061Z,1.5
2023-03-15T11:45:18.054Z,1.5
2023-03-15T11:46:20.046Z,1.6
2023-03-15T11:47:22.102Z,1.6
2023-03-15T11:48:25.182Z,1.6
2023-03-15T11:49:27.188Z,1.6
2023-03-15T11:50:29.183Z,1.6
2023-03-15T11:51:32.189Z,1.7
2023-03-15T11:53:18.129Z,1.7
2023-03-15T11:54:18.172Z,1.7
2023-03-15T11:55:18.106Z,1.7
2023-03-15T11:56:18.107Z,1.8
2023-03-15T11:57:44.237Z,1.8
2023-03-15T11:59:18.122Z,1.8
2023-03-15T12:00:18.377Z,1.8
2023-03-15T12:01:18.121Z,1.9
2023-03-15T12:02:18.197Z,1.9
2023-03-15T12:03:18.175Z,1.9
2023-03-15T12:04:18.118Z,1.9
2023-03-15T12:05:18.481Z,1.9
2023-03-15T12:07:05.189Z,1.9
2023-03-15T12:08:07.260Z,1.9
2023-03-15T12:09:13.747Z,1.9
2023-03-15T12:10:16.866Z,1.9
2023-03-15T12:11:18.740Z,2
2023-03-15T12:12:20.743Z,2
2023-03-15T12:13:22.824Z,2
2023-03-15T12:14:24.756Z,1.9
2023-03-15T12:15:26.788Z,1.9
2023-03-15T12:17:30.978Z,1.9
2023-03-15T12:18:32.773Z,1.9
2023-03-15T12:19:34.742Z,1.9
2023-03-15T12:20:37.783Z,1.9
2023-03-15T12:21:39.762Z,1.9
2023-03-15T12:23:43.808Z,1.9
2023-03-15T12:24:45.751Z,1.9
2023-03-15T12:25:54.696Z,1.9
2023-03-15T12:27:18.123Z,2
2023-03-15T12:28:18.126Z,2
2023-03-15T12:29:18.219Z,2
2023-03-15T12:30:18.155Z,2.1
2023-03-15T12:31:18.229Z,2.1
2023-03-15T12:32:18.136Z,2.1
2023-03-15T12:33:18.173Z,2.1
2023-03-15T12:38:18.207Z,2.1
2023-03-15T12:39:18.157Z,2
2023-03-15T12:40:18.237Z,2
2023-03-15T12:41:24.551Z,2
2023-03-15T12:42:38.833Z,2
2023-03-15T12:43:28.576Z,2
2023-03-15T12:44:30.564Z,2
2023-03-15T12:45:32.568Z,2
2023-03-15T12:46:35.632Z,2.1
2023-03-15T12:47:37.550Z,2.1
2023-03-15T12:48:39.546Z,2.1
2023-03-15T12:49:41.577Z,2.2
2023-03-15T12:50:43.582Z,2.2
2023-03-15T12:51:45.545Z,2.3
2023-03-15T12:53:02.820Z,2.3
2023-03-15T12:53:50.568Z,2.4
2023-03-15T12:54:52.613Z,2.4
2023-03-15T12:56:06.193Z,2.5
2023-03-15T12:56:56.563Z,2.5
2023-03-15T12:57:58.562Z,2.5
2023-03-15T12:59:00.558Z,2.5
2023-03-15T13:00:02.579Z,2.5
2023-03-15T13:01:04.585Z,2.5
2023-03-15T13:02:07.044Z,2.5
2023-03-15T13:03:08.788Z,2.5
2023-03-15T13:04:10.586Z,2.5
2023-03-15T13:05:12.621Z,2.5
2023-03-15T13:06:14.590Z,2.5
2023-03-15T13:07:17.612Z,2.5
2023-03-15T13:08:19.631Z,2.5
2023-03-15T13:10:23.568Z,2.6
2023-03-15T13:11:25.569Z,2.6
2023-03-15T13:12:27.579Z,2.6
2023-03-15T13:13:29.638Z,2.7
2023-03-15T13:14:32.565Z,2.7
2023-03-15T13:15:34.644Z,2.7
2023-03-15T13:16:36.583Z,2.8
2023-03-15T13:17:38.809Z,2.8
2023-03-15T13:18:40.645Z,2.8
2023-03-15T13:19:42.638Z,2.8
2023-03-15T13:20:44.587Z,2.8
2023-03-15T13:21:46.604Z,2.8
2023-03-15T13:22:55.412Z,2.8
2023-03-15T13:23:50.577Z,2.8
2023-03-15T13:24:52.596Z,2.8
2023-03-15T13:25:54.602Z,2.8
2023-03-15T13:26:56.585Z,2.9
2023-03-15T13:27:58.592Z,2.9
2023-03-15T13:29:00.588Z,2.9
2023-03-15T13:30:02.606Z,2.9
2023-03-15T13:31:04.625Z,2.9
2023-03-15T13:32:06.636Z,2.9
2023-03-15T13:33:08.583Z,3
2023-03-15T13:34:10.596Z,3
2023-03-15T13:35:12.596Z,3
2023-03-15T13:36:14.602Z,3
2023-03-15T13:37:18.605Z,3
2023-03-15T13:38:20.634Z,3
2023-03-15T13:39:22.601Z,3
2023-03-15T13:40:24.603Z,3
2023-03-15T13:41:26.587Z,3
2023-03-15T13:42:28.600Z,3
2023-03-15T13:43:30.633Z,3
2023-03-15T13:44:32.594Z,3
2023-03-15T13:45:34.604Z,3
2023-03-15T13:46:36.754Z,3
2023-03-15T13:47:38.619Z,3
2023-03-15T13:48:40.635Z,2.9
2023-03-15T13:49:42.612Z,3
2023-03-15T13:50:56.876Z,2.9
2023-03-15T13:51:46.646Z,2.9
2023-03-15T13:52:48.647Z,2.9
2023-03-15T13:53:50.604Z,2.9
2023-03-15T13:54:52.645Z,2.9
2023-03-15T13:55:54.606Z,2.9
2023-03-15T13:56:56.606Z,3
2023-03-15T13:57:58.642Z,3
2023-03-15T13:59:00.629Z,3
2023-03-15T14:00:03.608Z,3
2023-03-15T14:01:05.612Z,3
2023-03-15T14:02:07.993Z,3
2023-03-15T14:03:09.723Z,3
2023-03-15T14:04:11.634Z,3
2023-03-15T14:05:14.664Z,3
2023-03-15T14:06:17.621Z,3
2023-03-15T14:07:19.675Z,3
2023-03-15T14:08:21.617Z,3
2023-03-15T14:09:23.627Z,3
2023-03-15T14:10:25.620Z,3
2023-03-15T14:11:27.619Z,3
2023-03-15T14:12:29.678Z,3.1
2023-03-15T14:13:31.619Z,3.1
2023-03-15T14:14:33.625Z,3.1
2023-03-15T14:15:35.658Z,3
2023-03-15T14:16:45.105Z,2.9
2023-03-15T14:17:39.684Z,2.8
2023-03-15T14:18:41.622Z,2.7
2023-03-15T14:19:43.622Z,2.5
2023-03-15T14:20:45.637Z,2.4
2023-03-15T14:21:47.645Z,2.2
2023-03-15T14:22:51.288Z,2.2
2023-03-15T14:23:51.648Z,2.1
2023-03-15T14:24:54.631Z,2
2023-03-15T14:25:56.638Z,1.9
2023-03-15T14:26:58.633Z,1.8
2023-03-15T14:28:00.688Z,1.8
2023-03-15T14:29:02.771Z,1.8
2023-03-15T14:30:04.632Z,1.7
2023-03-15T14:31:06.723Z,1.7
2023-03-15T14:32:08.648Z,1.7
2023-03-15T14:33:10.753Z,1.7
2023-03-15T14:34:12.657Z,1.6
2023-03-15T14:35:14.693Z,1.6
2023-03-15T14:36:18.718Z,1.6
2023-03-15T14:37:20.638Z,1.5
2023-03-15T14:38:22.680Z,1.5
2023-03-15T14:39:24.713Z,1.5
2023-03-15T14:40:27.608Z,1.4
2023-03-15T14:41:29.704Z,1.4
2023-03-15T14:42:31.635Z,1.4
2023-03-15T14:43:33.650Z,1.3
2023-03-15T14:44:35.659Z,1.3
2023-03-15T14:45:37.723Z,1.3
2023-03-15T14:46:39.682Z,1.2
2023-03-15T14:47:54.983Z,1.2
2023-03-15T14:48:43.661Z,1.2
2023-03-15T14:49:45.653Z,1.2
2023-03-15T14:50:47.672Z,1.1
2023-03-15T14:51:49.676Z,1.1
2023-03-15T14:52:51.704Z,1.1
2023-03-15T14:53:53.653Z,1.1
2023-03-15T14:54:55.642Z,1.1
2023-03-15T14:55:57.650Z,1.1
2023-03-15T14:56:59.655Z,1.1
2023-03-15T14:58:01.849Z,1.1